Time;durP1;ratioP1;P1;durP2;ratioP2;P2;SDS_P1;SDS_P2;PMS_P1;PMS_P2;Temp;Humidity;BMP_temperature;BMP_pressure;BME280_temperature;BME280_humidity;BME280_pressure;Samples;Min_cycle;Max_cycle;Signal;HPM_P1;HPM_P2
2020/12/10 00:00:49;;;;;;;20.83;12.85;;;;;;;;;;2065297;28;20026;-71
2020/12/10 00:02:08;;;;;;;21.40;12.77;;;;;;;;;;2059059;28;20023;-71
2020/12/10 00:03:27;;;;;;;20.75;13.30;;;;;;;;;;2059232;28;20043;-71
2020/12/10 00:04:46;;;;;;;21.80;12.45;;;;;;;;;;2064372;28;20418;-71
2020/12/10 00:06:05;;;;;;;21.48;12.98;;;;;;;;;;2063348;28;20030;-71
2020/12/10 00:07:24;;;;;;;22.70;13.98;;;;;;;;;;2063645;28;20027;-71
2020/12/10 00:08:43;;;;;;;22.67;13.50;;;;;;;;;;2063431;28;20486;-70
2020/12/10 00:10:06;;;;;;;25.15;13.98;;;;;;;;;;2062671;28;20034;-71
2020/12/10 00:11:25;;;;;;;24.42;13.65;;;;;;;;;;2063999;28;20054;-71
2020/12/10 00:12:44;;;;;;;22.85;14.23;;;;;;;;;;2062949;28;20034;-72
2020/12/10 00:14:04;;;;;;;21.42;14.02;;;;;;;;;;2061734;28;20034;-70
2020/12/10 00:15:23;;;;;;;28.17;14.35;;;;;;;;;;2061415;28;20023;-70
2020/12/10 00:16:45;;;;;;;23.13;13.48;;;;;;;;;;2064950;28;20027;-72
2020/12/10 00:18:04;;;;;;;26.40;13.88;;;;;;;;;;2065253;28;20031;-71
2020/12/10 00:19:23;;;;;;;21.70;13.73;;;;;;;;;;2060837;28;20479;-69
2020/12/10 00:20:42;;;;;;;23.40;13.90;;;;;;;;;;2064286;28;20030;-71
2020/12/10 00:22:00;;;;;;;22.52;13.70;;;;;;;;;;2065496;28;20022;-71
2020/12/10 00:23:19;;;;;;;27.33;14.98;;;;;;;;;;2064372;28;20018;-71
2020/12/10 00:24:38;;;;;;;20.67;13.65;;;;;;;;;;2064823;28;20030;-71
2020/12/10 00:25:57;;;;;;;25.35;13.63;;;;;;;;;;2061680;28;20031;-72
2020/12/10 00:27:17;;;;;;;20.17;12.93;;;;;;;;;;2064312;28;20050;-71
2020/12/10 00:28:36;;;;;;;21.55;13.60;;;;;;;;;;2064888;28;20030;-71
2020/12/10 00:29:57;;;;;;;25.08;13.48;;;;;;;;;;2062018;28;20031;-72
2020/12/10 00:31:16;;;;;;;23.52;12.27;;;;;;;;;;2062743;28;20379;-72
2020/12/10 00:32:35;;;;;;;23.00;14.15;;;;;;;;;;2062578;28;20467;-70
2020/12/10 00:33:53;;;;;;;20.85;13.43;;;;;;;;;;2063108;28;20035;-70
2020/12/10 00:35:13;;;;;;;22.30;15.23;;;;;;;;;;2059724;28;20030;-71
2020/12/10 00:36:32;;;;;;;22.27;13.35;;;;;;;;;;2064679;28;20451;-71
2020/12/10 00:37:51;;;;;;;19.77;12.98;;;;;;;;;;2062336;28;20022;-71
2020/12/10 00:39:10;;;;;;;25.05;13.57;;;;;;;;;;2063801;28;20026;-72
2020/12/10 00:40:29;;;;;;;22.52;14.20;;;;;;;;;;2065356;28;20027;-72
2020/12/10 00:41:52;;;;;;;22.98;14.38;;;;;;;;;;2062565;28;20402;-73
2020/12/10 00:43:11;;;;;;;27.38;14.20;;;;;;;;;;2063557;28;20374;-72
2020/12/10 00:44:30;;;;;;;22.90;14.25;;;;;;;;;;2064459;28;20031;-71
2020/12/10 00:45:49;;;;;;;20.33;12.88;;;;;;;;;;2066210;28;20099;-72
2020/12/10 00:47:07;;;;;;;23.17;13.82;;;;;;;;;;2064100;28;20034;-72
2020/12/10 00:48:26;;;;;;;22.55;13.98;;;;;;;;;;2064606;28;20022;-72
2020/12/10 00:49:46;;;;;;;21.42;13.85;;;;;;;;;;2059423;28;20018;-71
2020/12/10 00:51:07;;;;;;;23.52;14.60;;;;;;;;;;2058986;28;20026;-72
2020/12/10 00:52:26;;;;;;;26.83;14.80;;;;;;;;;;2061981;28;20034;-72
2020/12/10 00:53:45;;;;;;;22.83;13.95;;;;;;;;;;2064191;28;20479;-72
2020/12/10 00:55:04;;;;;;;23.23;13.65;;;;;;;;;;2057732;28;20082;-73
2020/12/10 00:56:23;;;;;;;23.90;14.40;;;;;;;;;;2057466;28;20586;-69
2020/12/10 00:57:42;;;;;;;25.45;14.38;;;;;;;;;;2061091;28;20035;-70
2020/12/10 00:59:01;;;;;;;26.00;14.52;;;;;;;;;;2059530;28;20031;-73
2020/12/10 01:00:20;;;;;;;23.33;13.82;;;;;;;;;;2062943;28;20030;-72
2020/12/10 01:01:40;;;;;;;26.70;14.10;;;;;;;;;;2064102;28;20026;-71
2020/12/10 01:02:59;;;;;;;21.63;13.48;;;;;;;;;;2062517;28;20109;-72
2020/12/10 01:04:18;;;;;;;24.58;13.95;;;;;;;;;;2064170;28;20031;-71
2020/12/10 01:05:37;;;;;;;23.08;13.05;;;;;;;;;;2064807;28;20259;-71
2020/12/10 01:06:56;;;;;;;24.17;13.77;;;;;;;;;;2058988;28;20023;-71
2020/12/10 01:08:15;;;;;;;24.48;13.43;;;;;;;;;;2064712;28;20030;-71
2020/12/10 01:09:33;;;;;;;23.25;13.00;;;;;;;;;;2062527;28;20134;-71
2020/12/10 01:10:52;;;;;;;26.67;13.73;;;;;;;;;;2065586;28;20026;-70
2020/12/10 01:12:11;;;;;;;26.15;13.68;;;;;;;;;;2066371;28;20498;-71
2020/12/10 01:13:30;;;;;;;21.42;12.68;;;;;;;;;;2059862;28;20039;-71
2020/12/10 01:14:49;;;;;;;20.02;13.07;;;;;;;;;;2064569;28;20637;-71
2020/12/10 01:16:08;;;;;;;19.63;12.48;;;;;;;;;;2058734;28;20495;-71
2020/12/10 01:17:27;;;;;;;23.85;12.70;;;;;;;;;;2062286;28;20450;-71
2020/12/10 01:18:46;;;;;;;23.10;14.18;;;;;;;;;;2065432;28;20434;-71
2020/12/10 01:20:05;;;;;;;24.50;13.60;;;;;;;;;;2066331;28;20437;-71
2020/12/10 01:21:28;;;;;;;56.47;13.52;;;;;;;;;;2062771;28;20506;-71
2020/12/10 01:22:47;;;;;;;26.30;13.35;;;;;;;;;;2063587;28;20058;-71
2020/12/10 01:24:06;;;;;;;21.70;13.02;;;;;;;;;;2066437;28;20150;-72
2020/12/10 01:25:25;;;;;;;24.20;13.45;;;;;;;;;;2066714;28;20046;-71
2020/12/10 01:26:44;;;;;;;24.40;13.15;;;;;;;;;;2065352;28;20030;-69
2020/12/10 01:28:03;;;;;;;17.00;11.40;;;;;;;;;;2066012;28;20022;-71
2020/12/10 01:29:22;;;;;;;19.95;12.77;;;;;;;;;;2065170;28;20038;-71
2020/12/10 01:30:41;;;;;;;19.75;12.23;;;;;;;;;;2064894;28;20035;-69
2020/12/10 01:32:00;;;;;;;19.40;11.90;;;;;;;;;;2066577;28;20105;-71
2020/12/10 01:33:20;;;;;;;20.00;13.30;;;;;;;;;;2062632;28;20034;-71
2020/12/10 01:34:39;;;;;;;19.55;11.70;;;;;;;;;;2063083;28;20034;-70
2020/12/10 01:35:57;;;;;;;20.60;12.30;;;;;;;;;;2065327;28;20038;-71
2020/12/10 01:37:17;;;;;;;26.95;12.60;;;;;;;;;;2066386;28;20026;-69
2020/12/10 01:38:36;;;;;;;26.83;11.93;;;;;;;;;;2062973;28;20113;-71
2020/12/10 01:39:55;;;;;;;20.73;12.43;;;;;;;;;;2064372;28;20113;-71
2020/12/10 01:41:14;;;;;;;25.73;12.20;;;;;;;;;;2064148;28;20027;-71
2020/12/10 01:42:35;;;;;;;18.15;12.25;;;;;;;;;;2065786;28;20026;-72
2020/12/10 01:44:00;;;;;;;22.00;12.57;;;;;;;;;;2058814;28;20034;-71
2020/12/10 01:45:19;;;;;;;22.30;11.52;;;;;;;;;;2066118;28;20030;-71
2020/12/10 01:46:38;;;;;;;21.15;11.55;;;;;;;;;;2065489;28;20034;-71
2020/12/10 01:47:57;;;;;;;25.13;13.20;;;;;;;;;;2063119;28;20455;-71
2020/12/10 01:49:16;;;;;;;26.50;14.20;;;;;;;;;;2060955;28;20034;-71
2020/12/10 01:50:35;;;;;;;27.10;13.38;;;;;;;;;;2066049;28;20034;-72
2020/12/10 01:51:54;;;;;;;22.77;13.27;;;;;;;;;;2060100;28;20114;-71
2020/12/10 01:53:13;;;;;;;22.00;13.23;;;;;;;;;;2064774;28;20565;-72
2020/12/10 01:54:32;;;;;;;25.17;12.23;;;;;;;;;;2065248;28;20039;-71
2020/12/10 01:55:52;;;;;;;22.80;12.73;;;;;;;;;;2061541;28;20083;-71
2020/12/10 01:57:11;;;;;;;22.85;12.55;;;;;;;;;;2066143;28;20066;-71
2020/12/10 01:58:30;;;;;;;26.13;13.45;;;;;;;;;;2062796;28;20502;-72
2020/12/10 01:59:49;;;;;;;21.05;13.43;;;;;;;;;;2061199;28;20038;-71
2020/12/10 02:01:08;;;;;;;24.45;13.02;;;;;;;;;;2063047;28;20027;-72
2020/12/10 02:02:27;;;;;;;23.50;13.75;;;;;;;;;;2065006;28;20026;-71
2020/12/10 02:03:46;;;;;;;22.65;13.82;;;;;;;;;;2066159;28;20026;-71
2020/12/10 02:05:05;;;;;;;26.02;14.10;;;;;;;;;;2060968;28;20023;-71
2020/12/10 02:06:24;;;;;;;25.42;14.18;;;;;;;;;;2061445;28;20406;-71
2020/12/10 02:07:43;;;;;;;25.15;14.25;;;;;;;;;;2065666;28;20034;-72
2020/12/10 02:09:02;;;;;;;22.02;13.60;;;;;;;;;;2063529;28;20031;-72
2020/12/10 02:10:21;;;;;;;26.48;12.98;;;;;;;;;;2063734;28;20402;-72
2020/12/10 02:11:40;;;;;;;24.30;13.13;;;;;;;;;;2063917;28;20026;-72
2020/12/10 02:12:59;;;;;;;28.58;14.63;;;;;;;;;;2063404;28;20026;-71
2020/12/10 02:14:18;;;;;;;25.05;13.48;;;;;;;;;;2063239;28;20026;-71
2020/12/10 02:15:37;;;;;;;24.40;13.27;;;;;;;;;;2064346;28;20550;-71
2020/12/10 02:16:56;;;;;;;26.05;14.20;;;;;;;;;;2059554;28;20034;-71
2020/12/10 02:18:15;;;;;;;20.60;12.35;;;;;;;;;;2064869;28;20027;-72
2020/12/10 02:19:34;;;;;;;27.08;14.43;;;;;;;;;;2063242;28;20474;-72
2020/12/10 02:20:53;;;;;;;23.48;13.57;;;;;;;;;;2062538;28;20114;-72
2020/12/10 02:22:12;;;;;;;22.27;13.55;;;;;;;;;;2063003;28;20030;-72
2020/12/10 02:23:31;;;;;;;23.38;13.85;;;;;;;;;;2058263;28;20027;-72
2020/12/10 02:24:50;;;;;;;23.35;13.80;;;;;;;;;;2064624;28;20034;-72
2020/12/10 02:26:08;;;;;;;24.05;13.43;;;;;;;;;;2064348;28;20026;-72
2020/12/10 02:27:27;;;;;;;24.73;14.55;;;;;;;;;;2064072;28;20494;-72
2020/12/10 02:28:46;;;;;;;23.42;12.95;;;;;;;;;;2064956;28;20030;-72
2020/12/10 02:30:05;;;;;;;20.60;12.02;;;;;;;;;;2060276;28;20041;-72
2020/12/10 02:31:26;;;;;;;19.13;11.75;;;;;;;;;;2064062;28;20109;-72
2020/12/10 02:32:45;;;;;;;21.50;12.93;;;;;;;;;;2064398;28;20104;-73
2020/12/10 02:34:04;;;;;;;20.45;11.82;;;;;;;;;;2065352;28;20062;-72
2020/12/10 02:35:26;;;;;;;18.02;11.75;;;;;;;;;;2058638;28;20436;-69
2020/12/10 02:36:45;;;;;;;17.27;11.15;;;;;;;;;;2059933;28;20042;-72
2020/12/10 02:38:06;;;;;;;20.55;12.18;;;;;;;;;;2064260;28;20486;-72
2020/12/10 02:39:25;;;;;;;14.93;10.77;;;;;;;;;;2063422;28;20042;-72
2020/12/10 02:40:45;;;;;;;21.40;12.27;;;;;;;;;;2065007;28;20026;-71
2020/12/10 02:42:04;;;;;;;21.98;12.25;;;;;;;;;;2065893;28;20105;-71
2020/12/10 02:43:23;;;;;;;16.48;10.93;;;;;;;;;;2062218;28;20030;-71
2020/12/10 02:44:42;;;;;;;18.45;11.82;;;;;;;;;;2064178;28;20443;-71
2020/12/10 02:46:01;;;;;;;21.75;10.88;;;;;;;;;;2065493;28;20037;-71
2020/12/10 02:47:19;;;;;;;25.63;12.35;;;;;;;;;;2063473;28;20105;-71
2020/12/10 02:48:39;;;;;;;20.67;11.93;;;;;;;;;;2065500;28;20482;-70
2020/12/10 02:49:57;;;;;;;22.05;12.85;;;;;;;;;;2064135;28;20061;-71
2020/12/10 02:51:16;;;;;;;18.88;12.88;;;;;;;;;;2064463;28;20467;-71
2020/12/10 02:52:35;;;;;;;22.63;12.02;;;;;;;;;;2065098;28;20034;-68
2020/12/10 02:53:54;;;;;;;21.63;12.32;;;;;;;;;;2063506;28;20023;-71
2020/12/10 02:55:13;;;;;;;22.20;11.63;;;;;;;;;;2060984;28;20395;-71
2020/12/10 02:56:32;;;;;;;21.08;11.93;;;;;;;;;;2058315;28;20031;-70
2020/12/10 02:57:51;;;;;;;24.40;13.00;;;;;;;;;;2064261;28;20105;-71
2020/12/10 02:59:10;;;;;;;24.67;13.23;;;;;;;;;;2061503;28;20066;-71
2020/12/10 03:00:29;;;;;;;25.73;13.35;;;;;;;;;;2059091;28;20394;-69
2020/12/10 03:01:51;;;;;;;19.38;12.30;;;;;;;;;;2062335;28;20407;-70
2020/12/10 03:03:09;;;;;;;19.95;11.85;;;;;;;;;;2064004;28;20026;-73
2020/12/10 03:04:28;;;;;;;20.85;13.20;;;;;;;;;;2061434;28;20038;-71
2020/12/10 03:05:47;;;;;;;28.10;13.07;;;;;;;;;;2061032;28;20026;-73
2020/12/10 03:07:06;;;;;;;25.98;12.98;;;;;;;;;;2064757;28;20057;-73
2020/12/10 03:08:25;;;;;;;24.60;13.43;;;;;;;;;;2064924;28;20030;-73
2020/12/10 03:09:44;;;;;;;29.20;12.65;;;;;;;;;;2065917;28;20105;-73
2020/12/10 03:11:03;;;;;;;23.95;12.85;;;;;;;;;;2061357;28;20023;-73
2020/12/10 03:12:22;;;;;;;25.10;12.98;;;;;;;;;;2057626;28;20413;-72
2020/12/10 03:13:41;;;;;;;28.70;13.75;;;;;;;;;;2065059;28;20105;-73
2020/12/10 03:15:00;;;;;;;23.42;13.05;;;;;;;;;;2064358;28;20494;-73
2020/12/10 03:16:19;;;;;;;26.85;14.13;;;;;;;;;;2065844;28;20038;-73
2020/12/10 03:17:38;;;;;;;20.75;12.82;;;;;;;;;;2059975;28;20035;-73
2020/12/10 03:18:57;;;;;;;23.92;13.48;;;;;;;;;;2062207;28;20106;-73
2020/12/10 03:20:16;;;;;;;20.77;12.27;;;;;;;;;;2060092;28;20479;-74
2020/12/10 03:21:35;;;;;;;23.70;13.25;;;;;;;;;;2062756;28;20031;-74
2020/12/10 03:22:54;;;;;;;24.30;13.40;;;;;;;;;;2063875;28;20060;-73
2020/12/10 03:24:13;;;;;;;29.17;13.57;;;;;;;;;;2060971;28;20015;-71
2020/12/10 03:25:32;;;;;;;26.92;14.10;;;;;;;;;;2063223;28;20050;-73
2020/12/10 03:26:51;;;;;;;23.63;13.50;;;;;;;;;;2061241;28;20438;-73
2020/12/10 03:28:10;;;;;;;24.05;13.43;;;;;;;;;;2063352;28;20482;-73
2020/12/10 03:29:29;;;;;;;20.98;13.05;;;;;;;;;;2062361;28;20034;-73
2020/12/10 03:30:47;;;;;;;23.92;13.63;;;;;;;;;;2061797;28;20475;-73
2020/12/10 03:32:07;;;;;;;25.08;14.00;;;;;;;;;;2065382;28;20030;-73
2020/12/10 03:33:26;;;;;;;24.58;13.38;;;;;;;;;;2065182;28;20109;-72
2020/12/10 03:34:44;;;;;;;20.73;12.77;;;;;;;;;;2062691;28;20030;-71
2020/12/10 03:36:03;;;;;;;25.88;13.70;;;;;;;;;;2058100;28;20479;-72
2020/12/10 03:37:22;;;;;;;24.85;14.10;;;;;;;;;;2059044;28;20459;-73
2020/12/10 03:38:41;;;;;;;27.50;14.48;;;;;;;;;;2056909;28;20035;-72
2020/12/10 03:40:00;;;;;;;26.65;14.73;;;;;;;;;;2059220;28;20031;-71
2020/12/10 03:41:19;;;;;;;23.35;14.25;;;;;;;;;;2062780;28;20022;-73
2020/12/10 03:42:38;;;;;;;29.52;14.55;;;;;;;;;;2057975;28;20030;-72
2020/12/10 03:43:57;;;;;;;25.35;14.35;;;;;;;;;;2064452;28;20019;-73
2020/12/10 03:45:16;;;;;;;32.15;15.18;;;;;;;;;;2060266;28;20097;-72
2020/12/10 03:46:35;;;;;;;28.27;14.80;;;;;;;;;;2061515;28;20030;-73
2020/12/10 03:47:54;;;;;;;23.58;14.32;;;;;;;;;;2063080;28;20026;-73
2020/12/10 03:49:13;;;;;;;29.63;15.32;;;;;;;;;;2058066;28;20038;-73
2020/12/10 03:50:32;;;;;;;32.97;15.60;;;;;;;;;;2061962;28;20023;-73
2020/12/10 03:51:51;;;;;;;26.40;14.32;;;;;;;;;;2063511;28;20422;-72
2020/12/10 03:53:10;;;;;;;33.60;15.18;;;;;;;;;;2060833;28;20038;-73
2020/12/10 03:54:29;;;;;;;31.75;14.45;;;;;;;;;;2062392;28;20031;-73
2020/12/10 03:55:48;;;;;;;33.25;14.70;;;;;;;;;;2060760;28;20109;-74
2020/12/10 03:57:07;;;;;;;30.77;14.98;;;;;;;;;;2063570;28;20465;-73
2020/12/10 03:58:26;;;;;;;25.00;14.52;;;;;;;;;;2062570;28;20030;-74
2020/12/10 03:59:44;;;;;;;26.48;15.27;;;;;;;;;;2058642;28;20023;-71
2020/12/10 04:01:03;;;;;;;31.17;15.07;;;;;;;;;;2061064;28;20069;-70
2020/12/10 04:02:22;;;;;;;25.65;14.85;;;;;;;;;;2064970;28;20023;-73
2020/12/10 04:03:42;;;;;;;30.35;14.80;;;;;;;;;;2061545;28;20023;-73
2020/12/10 04:05:00;;;;;;;36.08;15.55;;;;;;;;;;2060127;28;20026;-73
2020/12/10 04:06:20;;;;;;;28.60;14.60;;;;;;;;;;2061704;28;20019;-73
2020/12/10 04:07:39;;;;;;;28.15;14.95;;;;;;;;;;2064257;28;20034;-73
2020/12/10 04:08:58;;;;;;;33.30;15.52;;;;;;;;;;2063460;28;20069;-73
2020/12/10 04:10:17;;;;;;;26.45;15.32;;;;;;;;;;2059867;28;20039;-73
2020/12/10 04:11:36;;;;;;;33.50;15.68;;;;;;;;;;2062206;28;20042;-73
2020/12/10 04:12:55;;;;;;;24.45;14.18;;;;;;;;;;2059599;28;20035;-73
2020/12/10 04:14:14;;;;;;;30.35;14.80;;;;;;;;;;2064420;28;20026;-73
2020/12/10 04:15:33;;;;;;;30.67;15.70;;;;;;;;;;2063939;28;20042;-73
2020/12/10 04:16:52;;;;;;;28.90;15.18;;;;;;;;;;2063003;28;20117;-73
2020/12/10 04:18:11;;;;;;;29.77;15.30;;;;;;;;;;2062474;28;20027;-72
2020/12/10 04:19:29;;;;;;;28.63;15.55;;;;;;;;;;2059141;28;20433;-71
2020/12/10 04:20:48;;;;;;;37.47;15.75;;;;;;;;;;2062825;28;20109;-72
2020/12/10 04:22:07;;;;;;;29.38;15.00;;;;;;;;;;2058948;28;20027;-71
2020/12/10 04:23:26;;;;;;;27.55;15.20;;;;;;;;;;2064281;28;20035;-72
2020/12/10 04:24:45;;;;;;;25.23;13.98;;;;;;;;;;2063586;28;20463;-72
2020/12/10 04:26:04;;;;;;;24.35;14.25;;;;;;;;;;2063954;28;20034;-72
2020/12/10 04:27:22;;;;;;;29.10;14.32;;;;;;;;;;2064729;28;20035;-72
2020/12/10 04:28:42;;;;;;;23.17;14.02;;;;;;;;;;2065334;28;20044;-70
2020/12/10 04:30:01;;;;;;;27.08;14.98;;;;;;;;;;2063779;28;20034;-72
2020/12/10 04:31:20;;;;;;;25.35;14.77;;;;;;;;;;2060100;28;20058;-72
2020/12/10 04:32:39;;;;;;;24.90;13.80;;;;;;;;;;2063423;28;20023;-73
2020/12/10 04:33:58;;;;;;;27.25;13.65;;;;;;;;;;2061865;28;20403;-72
2020/12/10 04:35:17;;;;;;;21.92;13.75;;;;;;;;;;2063162;28;20030;-73
2020/12/10 04:36:36;;;;;;;29.20;15.60;;;;;;;;;;2063807;28;20038;-72
2020/12/10 04:37:55;;;;;;;26.92;15.13;;;;;;;;;;2065003;28;20018;-73
2020/12/10 04:39:14;;;;;;;25.05;13.77;;;;;;;;;;2064235;28;20034;-74
2020/12/10 04:40:33;;;;;;;28.02;14.73;;;;;;;;;;2066434;28;20482;-73
2020/12/10 04:41:52;;;;;;;28.40;15.45;;;;;;;;;;2064253;28;20026;-73
2020/12/10 04:43:13;;;;;;;30.17;15.27;;;;;;;;;;2065253;28;20438;-73
2020/12/10 04:44:32;;;;;;;25.90;14.30;;;;;;;;;;2066487;28;20030;-73
2020/12/10 04:45:50;;;;;;;27.63;14.35;;;;;;;;;;2066964;28;20483;-73
2020/12/10 04:47:10;;;;;;;27.13;14.00;;;;;;;;;;2065343;28;20030;-73
2020/12/10 04:48:30;;;;;;;24.27;15.35;;;;;;;;;;2064063;28;20026;-73
2020/12/10 04:49:51;;;;;;;19.83;12.73;;;;;;;;;;2066215;28;20034;-73
2020/12/10 04:51:10;;;;;;;23.35;13.82;;;;;;;;;;2065769;28;20442;-73
2020/12/10 04:52:29;;;;;;;31.25;15.68;;;;;;;;;;2065175;28;20026;-73
2020/12/10 04:53:50;;;;;;;23.58;13.63;;;;;;;;;;2064930;28;20023;-73
2020/12/10 04:55:09;;;;;;;24.27;14.43;;;;;;;;;;2063121;28;20046;-73
2020/12/10 04:56:28;;;;;;;20.05;12.93;;;;;;;;;;2064359;28;20062;-73
2020/12/10 04:57:47;;;;;;;24.05;13.60;;;;;;;;;;2065159;28;20026;-73
2020/12/10 04:59:05;;;;;;;25.35;14.38;;;;;;;;;;2063289;28;20026;-72
2020/12/10 05:00:25;;;;;;;29.70;14.93;;;;;;;;;;2063628;28;20065;-71
2020/12/10 05:01:44;;;;;;;26.02;14.32;;;;;;;;;;2061357;28;20795;-73
2020/12/10 05:03:03;;;;;;;23.45;13.48;;;;;;;;;;2063661;28;20051;-71
2020/12/10 05:04:23;;;;;;;25.73;14.48;;;;;;;;;;2065183;28;20109;-73
2020/12/10 05:05:41;;;;;;;25.55;14.27;;;;;;;;;;2065448;28;20022;-73
2020/12/10 05:07:00;;;;;;;27.10;14.02;;;;;;;;;;2064594;28;20474;-71
2020/12/10 05:08:29;;;;;;;24.90;13.65;;;;;;;;;;2065042;28;20031;-72
2020/12/10 05:09:58;;;;;;;21.27;12.30;;;;;;;;;;2061493;28;20479;-69
2020/12/10 05:11:31;;;;;;;25.10;13.80;;;;;;;;;;2058610;28;20027;-73
2020/12/10 05:12:50;;;;;;;;;;;;;;;;;;2058556;28;20023;-73
2020/12/10 05:14:09;;;;;;;22.83;12.95;;;;;;;;;;2058973;28;20357;-73
2020/12/10 05:15:31;;;;;;;24.48;13.50;;;;;;;;;;2064882;28;20030;-70
2020/12/10 05:17:09;;;;;;;27.20;13.60;;;;;;;;;;2063866;28;20031;-72
2020/12/10 05:18:28;;;;;;;20.88;13.07;;;;;;;;;;2062986;28;20038;-73
2020/12/10 05:19:54;;;;;;;33.03;14.25;;;;;;;;;;2064291;28;20433;-71
2020/12/10 05:21:15;;;;;;;28.25;15.02;;;;;;;;;;2062426;28;20034;-72
2020/12/10 05:22:42;;;;;;;26.55;14.13;;;;;;;;;;2064203;28;20387;-72
2020/12/10 05:24:18;;;;;;;27.15;13.93;;;;;;;;;;2062764;28;20034;-72
2020/12/10 05:25:44;;;;;;;24.35;14.35;;;;;;;;;;2063442;28;20042;-73
2020/12/10 05:27:13;;;;;;;26.92;13.60;;;;;;;;;;2061093;28;20035;-71
2020/12/10 05:28:38;;;;;;;24.20;14.35;;;;;;;;;;2055133;28;20075;-73
2020/12/10 05:29:57;;;;;;;22.80;13.27;;;;;;;;;;2060406;28;20026;-73
2020/12/10 05:31:20;;;;;;;26.75;13.73;;;;;;;;;;2064100;28;20045;-72
2020/12/10 05:32:41;;;;;;;22.85;13.15;;;;;;;;;;2064388;28;20058;-70
2020/12/10 05:34:00;;;;;;;24.50;13.65;;;;;;;;;;2061291;28;20023;-73
2020/12/10 05:35:21;;;;;;;25.25;14.30;;;;;;;;;;2059279;28;20023;-70
2020/12/10 05:36:43;;;;;;;24.27;13.75;;;;;;;;;;2064980;28;20027;-72
2020/12/10 05:38:10;;;;;;;26.75;13.85;;;;;;;;;;2057650;28;20019;-72
2020/12/10 05:39:29;;;;;;;28.30;13.45;;;;;;;;;;2060713;28;20430;-73
2020/12/10 05:40:47;;;;;;;30.23;14.55;;;;;;;;;;2061372;28;20031;-73
2020/12/10 05:42:07;;;;;;;31.95;15.20;;;;;;;;;;2061868;28;20022;-72
2020/12/10 05:43:25;;;;;;;25.80;13.90;;;;;;;;;;2063251;28;20101;-73
2020/12/10 05:44:44;;;;;;;26.33;14.32;;;;;;;;;;2061283;28;20098;-72
2020/12/10 05:46:03;;;;;;;26.30;14.02;;;;;;;;;;2063426;28;20019;-72
2020/12/10 05:47:27;;;;;;;30.60;14.95;;;;;;;;;;2059273;28;20023;-73
2020/12/10 05:48:47;;;;;;;26.33;14.23;;;;;;;;;;2060345;28;20038;-72
2020/12/10 05:50:05;;;;;;;25.60;13.93;;;;;;;;;;2060022;28;20031;-72
2020/12/10 05:51:25;;;;;;;25.10;14.43;;;;;;;;;;2057798;28;20486;-72
2020/12/10 05:52:54;;;;;;;25.35;13.75;;;;;;;;;;2062646;28;20034;-70
2020/12/10 05:54:17;;;;;;;27.58;14.63;;;;;;;;;;2062328;28;20035;-72
2020/12/10 05:55:37;;;;;;;26.50;14.45;;;;;;;;;;2062477;28;20026;-70
2020/12/10 05:56:58;;;;;;;28.40;14.43;;;;;;;;;;2058074;28;20475;-72
2020/12/10 05:58:19;;;;;;;21.38;13.35;;;;;;;;;;2062239;28;20022;-70
2020/12/10 05:59:38;;;;;;;24.10;14.00;;;;;;;;;;2058784;28;20069;-71
2020/12/10 06:00:57;;;;;;;21.20;13.52;;;;;;;;;;2064348;28;20443;-71
2020/12/10 06:02:17;;;;;;;19.15;11.80;;;;;;;;;;2060404;28;20018;-72
2020/12/10 06:03:36;;;;;;;20.85;13.20;;;;;;;;;;2059769;28;20534;-72
2020/12/10 06:04:56;;;;;;;23.50;13.00;;;;;;;;;;2059162;28;20026;-72
2020/12/10 06:06:15;;;;;;;21.67;13.00;;;;;;;;;;2056163;28;20065;-71
2020/12/10 06:07:34;;;;;;;22.20;13.05;;;;;;;;;;2061668;28;20022;-72
2020/12/10 06:08:58;;;;;;;31.13;13.55;;;;;;;;;;2057255;28;20106;-69
2020/12/10 06:10:17;;;;;;;26.75;12.80;;;;;;;;;;2061288;28;20034;-72
2020/12/10 06:11:37;;;;;;;23.58;13.32;;;;;;;;;;2060915;28;20038;-72
2020/12/10 06:12:58;;;;;;;23.85;13.38;;;;;;;;;;2062216;28;20038;-70
2020/12/10 06:14:16;;;;;;;25.40;15.77;;;;;;;;;;2065073;28;20382;-73
2020/12/10 06:15:37;;;;;;;30.08;13.77;;;;;;;;;;2059642;28;20375;-73
2020/12/10 06:17:08;;;;;;;22.33;12.73;;;;;;;;;;2054429;28;20027;-72
2020/12/10 06:18:27;;;;;;;25.38;13.80;;;;;;;;;;2061493;28;20042;-73
2020/12/10 06:19:46;;;;;;;25.85;13.93;;;;;;;;;;2061664;28;20038;-72
2020/12/10 06:21:25;;;;;;;22.90;13.70;;;;;;;;;;2062890;28;20466;-75
2020/12/10 06:22:44;;;;;;;21.67;12.90;;;;;;;;;;2061964;28;20039;-72
2020/12/10 06:24:32;;;;;;;21.75;13.27;;;;;;;;;;2060752;28;20050;-74
2020/12/10 06:25:51;;;;;;;20.73;12.15;;;;;;;;;;2055437;28;20085;-74
2020/12/10 06:27:24;;;;;;;26.15;12.70;;;;;;;;;;2064182;28;20034;-73
2020/12/10 06:28:42;;;;;;;22.60;13.23;;;;;;;;;;2062258;28;20455;-75
2020/12/10 06:30:12;;;;;;;22.77;13.80;;;;;;;;;;2060500;28;20023;-74
2020/12/10 06:31:31;;;;;;;27.73;13.38;;;;;;;;;;2057259;28;20113;-73
2020/12/10 06:32:51;;;;;;;26.35;13.20;;;;;;;;;;2061353;28;20030;-74
2020/12/10 06:34:30;;;;;;;26.85;13.15;;;;;;;;;;2063377;28;20031;-74
2020/12/10 06:35:49;;;;;;;27.45;13.23;;;;;;;;;;2059395;28;20116;-70
2020/12/10 06:37:15;;;;;;;19.08;12.07;;;;;;;;;;2056415;28;20121;-72
2020/12/10 06:38:40;;;;;;;22.17;12.20;;;;;;;;;;2064445;28;20027;-74
2020/12/10 06:40:00;;;;;;;21.92;12.50;;;;;;;;;;2065061;28;20027;-74
2020/12/10 06:41:19;;;;;;;23.38;12.60;;;;;;;;;;2064651;28;20109;-75
2020/12/10 06:42:45;;;;;;;20.10;12.13;;;;;;;;;;2059670;28;20038;-74
2020/12/10 06:44:04;;;;;;;24.42;13.15;;;;;;;;;;2061192;28;20054;-74
2020/12/10 06:45:24;;;;;;;24.23;13.30;;;;;;;;;;2059571;28;20070;-74
2020/12/10 06:46:49;;;;;;;25.60;13.07;;;;;;;;;;2060081;28;20124;-75
2020/12/10 06:48:09;;;;;;;22.65;13.18;;;;;;;;;;2065645;28;20384;-75
2020/12/10 06:49:30;;;;;;;20.55;12.93;;;;;;;;;;2064359;28;20042;-75
2020/12/10 06:50:49;;;;;;;28.13;14.48;;;;;;;;;;2059094;28;20042;-72
2020/12/10 06:52:18;;;;;;;21.05;13.07;;;;;;;;;;2060511;28;20026;-75
2020/12/10 06:53:37;;;;;;;20.83;12.55;;;;;;;;;;2064141;28;20030;-75
2020/12/10 06:55:05;;;;;;;23.67;13.38;;;;;;;;;;2062051;28;20038;-75
2020/12/10 06:56:24;;;;;;;22.73;13.13;;;;;;;;;;2064044;28;20447;-72
2020/12/10 06:57:51;;;;;;;23.30;14.32;;;;;;;;;;2059206;28;20030;-75
2020/12/10 06:59:10;;;;;;;24.35;14.05;;;;;;;;;;2057262;28;20027;-76
2020/12/10 07:00:45;;;;;;;21.63;13.90;;;;;;;;;;2056937;28;20030;-74
2020/12/10 07:02:15;;;;;;;35.85;14.70;;;;;;;;;;2060073;28;20383;-74
2020/12/10 07:03:35;;;;;;;20.80;13.30;;;;;;;;;;2059207;28;20026;-74
2020/12/10 07:04:53;;;;;;;23.63;12.65;;;;;;;;;;2063895;28;20026;-75
2020/12/10 07:06:18;;;;;;;21.50;13.52;;;;;;;;;;2064414;28;20530;-74
2020/12/10 07:07:37;;;;;;;22.20;13.40;;;;;;;;;;2062866;28;20382;-74
2020/12/10 07:09:06;;;;;;;21.40;12.63;;;;;;;;;;2064996;28;20510;-74
2020/12/10 07:10:35;;;;;;;22.90;12.55;;;;;;;;;;2061145;28;20117;-75
2020/12/10 07:11:54;;;;;;;28.15;12.68;;;;;;;;;;2064940;28;20042;-76
2020/12/10 07:13:15;;;;;;;19.02;12.82;;;;;;;;;;2063362;28;20030;-76
2020/12/10 07:14:35;;;;;;;24.20;12.70;;;;;;;;;;2061159;28;20030;-75
2020/12/10 07:15:54;;;;;;;26.40;14.50;;;;;;;;;;2064434;28;20029;-75
2020/12/10 07:17:13;;;;;;;23.77;14.10;;;;;;;;;;2058576;28;20066;-75
2020/12/10 07:18:32;;;;;;;23.17;13.85;;;;;;;;;;2063379;28;21156;-75
2020/12/10 07:19:51;;;;;;;29.13;13.95;;;;;;;;;;2064273;28;20038;-75
2020/12/10 07:21:10;;;;;;;21.70;14.75;;;;;;;;;;2064177;28;20109;-73
2020/12/10 07:22:29;;;;;;;26.20;15.02;;;;;;;;;;2064114;28;20026;-74
2020/12/10 07:23:48;;;;;;;24.65;14.20;;;;;;;;;;2060349;28;20030;-75
2020/12/10 07:25:08;;;;;;;26.13;14.55;;;;;;;;;;2057481;28;20042;-73
2020/12/10 07:26:26;;;;;;;22.10;13.57;;;;;;;;;;2057978;28;20026;-74
2020/12/10 07:27:45;;;;;;;19.33;13.88;;;;;;;;;;2062086;28;20379;-73
2020/12/10 07:29:05;;;;;;;19.58;12.50;;;;;;;;;;2058795;28;20411;-74
2020/12/10 07:30:25;;;;;;;25.45;13.60;;;;;;;;;;2062246;28;20035;-71
2020/12/10 07:31:44;;;;;;;23.13;13.23;;;;;;;;;;2063491;28;20041;-73
2020/12/10 07:33:04;;;;;;;26.98;14.15;;;;;;;;;;2063371;28;20038;-75
2020/12/10 07:34:23;;;;;;;24.02;12.55;;;;;;;;;;2062522;28;20070;-71
2020/12/10 07:35:42;;;;;;;28.83;14.30;;;;;;;;;;2061492;28;20026;-74
2020/12/10 07:37:01;;;;;;;26.92;14.27;;;;;;;;;;2060456;28;20394;-74
2020/12/10 07:38:20;;;;;;;32.17;14.85;;;;;;;;;;2061979;28;20030;-74
2020/12/10 07:39:39;;;;;;;19.65;12.40;;;;;;;;;;2063443;28;20034;-71
2020/12/10 07:40:58;;;;;;;20.38;12.48;;;;;;;;;;2062494;28;20486;-74
2020/12/10 07:42:20;;;;;;;25.13;14.15;;;;;;;;;;2062166;28;20498;-75
2020/12/10 07:43:45;;;;;;;23.42;13.15;;;;;;;;;;2062493;28;20039;-75
2020/12/10 07:45:11;;;;;;;23.15;13.60;;;;;;;;;;2061761;28;20054;-72
2020/12/10 07:46:34;;;;;;;19.13;13.55;;;;;;;;;;2062508;28;20038;-74
2020/12/10 07:47:56;;;;;;;26.60;12.40;;;;;;;;;;2060936;28;20027;-74